createdAt,value
2018-10-01T00:00:08.972Z,11.38
2018-10-01T00:02:37.831Z,11.24
2018-10-01T00:05:07.236Z,11.23
2018-10-01T00:07:36.430Z,11.23
2018-10-01T00:10:05.357Z,11.22
2018-10-01T00:12:34.164Z,11.34
2018-10-01T00:15:03.120Z,11.39
2018-10-01T00:17:31.999Z,11.39
2018-10-01T00:20:06.455Z,11.35
2018-10-01T00:22:40.731Z,11.27
2018-10-01T00:25:09.659Z,11.32
2018-10-01T00:27:38.455Z,11.29
2018-10-01T00:30:07.429Z,11.32
2018-10-01T00:32:36.282Z,11.37
2018-10-01T00:35:05.528Z,11.32
2018-10-01T00:37:34.477Z,11.24
2018-10-01T00:40:03.412Z,11.21
2018-10-01T00:42:32.644Z,11.30
2018-10-01T00:45:04.678Z,11.36
2018-10-01T00:47:33.524Z,11.38
2018-10-01T00:50:02.436Z,11.42
2018-10-01T00:52:31.249Z,11.29
2018-10-01T00:55:00.052Z,11.32
2018-10-01T00:57:28.897Z,11.27
2018-10-01T00:59:57.760Z,11.34
2018-10-01T01:02:26.640Z,11.31
2018-10-01T01:04:55.422Z,11.45
2018-10-01T01:07:24.236Z,11.29
2018-10-01T01:09:53.056Z,11.23
2018-10-01T01:12:21.887Z,11.34
2018-10-01T01:14:50.728Z,11.36
2018-10-01T01:17:19.565Z,11.28
2018-10-01T01:19:48.415Z,11.30
2018-10-01T01:22:17.238Z,11.06
2018-10-01T01:24:46.029Z,11.23
2018-10-01T01:27:14.952Z,11.29
2018-10-01T01:29:43.768Z,11.32
2018-10-01T01:32:12.591Z,11.23
2018-10-01T01:34:41.375Z,11.25
2018-10-01T01:37:10.452Z,11.22
2018-10-01T01:39:39.299Z,11.22
2018-10-01T01:42:08.208Z,11.21
2018-10-01T01:44:37.092Z,11.23
2018-10-01T01:47:06.081Z,11.31
2018-10-01T01:49:34.922Z,10.93
2018-10-01T01:52:03.833Z,11.10
2018-10-01T01:54:32.675Z,11.15
2018-10-01T01:57:01.464Z,11.03
2018-10-01T01:59:30.365Z,11.16
2018-10-01T02:01:59.549Z,11.00
2018-10-01T02:04:28.762Z,10.98
2018-10-01T02:06:57.597Z,10.90
2018-10-01T02:09:27.395Z,10.90
2018-10-01T02:11:56.172Z,10.99
2018-10-01T02:14:25.053Z,10.95
2018-10-01T02:16:53.909Z,11.11
2018-10-01T02:19:22.784Z,10.94
2018-10-01T02:21:51.652Z,10.91
2018-10-01T02:24:20.484Z,10.91
2018-10-01T02:26:49.275Z,11.08
2018-10-01T02:29:18.247Z,10.97
2018-10-01T02:31:47.036Z,10.91
2018-10-01T02:34:15.859Z,10.99
2018-10-01T02:36:44.685Z,10.99
2018-10-01T02:39:14.484Z,10.93
2018-10-01T02:41:43.431Z,10.79
2018-10-01T02:44:12.616Z,10.75
2018-10-01T02:46:41.440Z,10.74
2018-10-01T02:49:10.511Z,10.81
2018-10-01T02:51:44.880Z,10.81
2018-10-01T02:54:19.380Z,10.82
2018-10-01T02:56:48.258Z,10.85
2018-10-01T02:59:17.137Z,10.71
2018-10-01T03:01:46.287Z,10.72
2018-10-01T03:04:15.167Z,10.74
2018-10-01T03:06:50.111Z,10.81
2018-10-01T03:09:24.964Z,10.74
2018-10-01T03:11:59.929Z,10.71
2018-10-01T03:14:28.766Z,10.71
2018-10-01T03:16:57.612Z,10.67
2018-10-01T03:19:26.400Z,10.61
2018-10-01T03:21:55.237Z,10.65
2018-10-01T03:24:24.021Z,10.70
2018-10-01T03:26:52.893Z,10.75
2018-10-01T03:29:21.684Z,10.71
2018-10-01T03:31:50.511Z,10.65
2018-10-01T03:34:19.299Z,10.67
2018-10-01T03:36:48.134Z,10.64
2018-10-01T03:39:16.960Z,10.76
2018-10-01T03:41:45.797Z,10.63
2018-10-01T03:44:14.579Z,10.75
2018-10-01T03:46:43.452Z,10.68
2018-10-01T03:49:12.254Z,10.75
2018-10-01T03:51:41.378Z,10.74
2018-10-01T03:54:10.148Z,10.67
2018-10-01T03:56:38.920Z,10.69
2018-10-01T03:59:08.640Z,10.62
2018-10-01T04:01:43.747Z,10.67
2018-10-01T04:04:18.508Z,10.73
2018-10-01T04:06:53.420Z,10.69
2018-10-01T04:09:28.309Z,10.54
2018-10-01T04:12:03.252Z,10.63
2018-10-01T04:14:32.141Z,10.64
2018-10-01T04:17:00.936Z,10.62
2018-10-01T04:19:35.895Z,10.70
2018-10-01T04:22:10.625Z,10.67
2018-10-01T04:24:45.493Z,10.66
2018-10-01T04:27:20.412Z,10.44
2018-10-01T04:29:55.263Z,10.60
2018-10-01T04:32:24.134Z,10.70
2018-10-01T04:34:59.425Z,10.46
2018-10-01T04:37:34.253Z,10.42
2018-10-01T04:40:09.133Z,10.52
2018-10-01T04:42:43.925Z,10.35
2018-10-01T04:45:12.864Z,10.26
2018-10-01T04:47:41.775Z,10.39
2018-10-01T04:50:10.662Z,10.34
2018-10-01T04:52:39.545Z,10.31
2018-10-01T04:55:08.733Z,10.36
2018-10-01T04:57:37.636Z,10.28
2018-10-01T05:00:07.582Z,10.23
2018-10-01T05:02:36.384Z,10.32
2018-10-01T05:05:06.181Z,10.34
2018-10-01T05:07:35.129Z,10.31
2018-10-01T05:10:04.294Z,10.28
2018-10-01T05:12:33.133Z,10.19
2018-10-01T05:15:01.984Z,10.19
2018-10-01T05:17:30.769Z,10.09
2018-10-01T05:19:59.980Z,10.13
2018-10-01T05:22:28.864Z,10.06
2018-10-01T05:24:57.685Z,9.89
2018-10-01T05:27:26.510Z,9.86
2018-10-01T05:29:55.304Z,9.98
2018-10-01T05:32:24.127Z,10.03
2018-10-01T05:34:52.950Z,10.07
2018-10-01T05:37:21.812Z,10.02
2018-10-01T05:39:50.632Z,10.06
2018-10-01T05:42:19.507Z,9.80
2018-10-01T05:44:48.324Z,9.86
2018-10-01T05:47:17.266Z,9.94
2018-10-01T05:49:46.076Z,9.93
2018-10-01T05:52:14.935Z,9.88
2018-10-01T05:54:43.758Z,9.79
2018-10-01T05:57:12.679Z,9.66
2018-10-01T05:59:41.854Z,9.79
2018-10-01T06:02:10.775Z,9.78
2018-10-01T06:04:39.585Z,9.81
2018-10-01T06:07:08.387Z,9.68
2018-10-01T06:09:37.221Z,9.77
2018-10-01T06:12:06.248Z,9.61
2018-10-01T06:14:35.064Z,9.62
2018-10-01T06:17:04.028Z,9.54
2018-10-01T06:19:32.912Z,9.62
2018-10-01T06:22:01.754Z,9.68
2018-10-01T06:24:30.817Z,9.58
2018-10-01T06:26:59.633Z,9.49
2018-10-01T06:29:28.508Z,9.50
2018-10-01T06:31:57.354Z,9.54
2018-10-01T06:34:26.265Z,9.51
2018-10-01T06:36:55.128Z,9.66
2018-10-01T06:39:24.005Z,9.64
2018-10-01T06:41:52.833Z,9.65
2018-10-01T06:44:21.723Z,9.66
2018-10-01T06:46:50.520Z,9.68
2018-10-01T06:49:19.435Z,9.74
2018-10-01T06:51:48.228Z,9.84
2018-10-01T06:54:17.131Z,9.89
2018-10-01T06:56:45.936Z,10.07
2018-10-01T06:59:14.848Z,10.11
2018-10-01T07:01:43.728Z,10.15
2018-10-01T07:04:12.572Z,10.39
2018-10-01T07:06:41.381Z,10.43
2018-10-01T07:09:11.129Z,10.37
2018-10-01T07:11:40.552Z,10.47
2018-10-01T07:14:09.399Z,10.57
2018-10-01T07:16:38.179Z,10.38
2018-10-01T07:19:07.120Z,10.53
2018-10-01T07:21:35.933Z,10.59
2018-10-01T07:24:04.817Z,10.58
2018-10-01T07:26:33.808Z,10.86
2018-10-01T07:29:02.905Z,10.71
2018-10-01T07:31:31.873Z,10.63
2018-10-01T07:34:00.665Z,10.75
2018-10-01T07:36:29.696Z,10.90
2018-10-01T07:38:58.858Z,10.86
2018-10-01T07:41:27.882Z,11.13
2018-10-01T07:43:56.691Z,11.27
2018-10-01T07:46:26.963Z,11.36
2018-10-01T07:48:57.341Z,11.36
2018-10-01T07:51:28.442Z,11.38
2018-10-01T07:53:59.093Z,11.61
2018-10-01T07:56:29.278Z,11.74
2018-10-01T07:58:59.562Z,11.79
2018-10-01T08:01:30.403Z,11.99
2018-10-01T08:04:00.768Z,11.96
2018-10-01T08:06:30.999Z,12.07
2018-10-01T08:09:01.524Z,11.92
2018-10-01T08:11:32.108Z,12.25
2018-10-01T08:14:02.590Z,12.19
2018-10-01T08:16:33.323Z,12.03
2018-10-01T08:19:04.052Z,12.10
2018-10-01T08:21:34.190Z,12.40
2018-10-01T08:24:04.333Z,12.53
2018-10-01T08:26:34.868Z,12.65
2018-10-01T08:29:04.737Z,12.87
2018-10-01T08:31:34.351Z,12.80
2018-10-01T08:34:04.716Z,12.67
2018-10-01T08:36:35.095Z,12.61
2018-10-01T08:39:09.858Z,12.62
2018-10-01T08:41:41.079Z,12.85
2018-10-01T08:44:13.138Z,12.73
2018-10-01T08:46:43.981Z,12.72
2018-10-01T08:49:27.722Z,12.75
2018-10-01T08:52:02.950Z,12.92
2018-10-01T08:54:35.942Z,13.02
2018-10-01T08:57:06.394Z,13.01
2018-10-01T08:59:36.271Z,12.98
2018-10-01T09:02:07.362Z,12.95
2018-10-01T09:04:38.242Z,12.99
2018-10-01T09:07:08.331Z,12.94
2018-10-01T09:09:38.715Z,13.16
2018-10-01T09:12:09.480Z,13.32
2018-10-01T09:14:40.127Z,13.12
2018-10-01T09:17:10.915Z,13.28
2018-10-01T09:19:41.817Z,13.34
2018-10-01T09:22:12.837Z,13.33
2018-10-01T09:24:43.178Z,13.14
2018-10-01T09:27:13.330Z,13.51
2018-10-01T09:29:43.888Z,13.41
2018-10-01T09:32:13.950Z,13.89
2018-10-01T09:34:44.498Z,13.68
2018-10-01T09:37:14.713Z,12.65
2018-10-01T09:39:45.078Z,12.32
2018-10-01T09:42:15.815Z,12.14
2018-10-01T09:44:46.110Z,12.04
2018-10-01T09:47:17.222Z,11.75
2018-10-01T09:49:47.228Z,11.71
2018-10-01T09:52:17.801Z,11.69
2018-10-01T09:54:48.081Z,11.79
2018-10-01T09:57:19.241Z,11.53
2018-10-01T09:59:49.795Z,11.48
2018-10-01T10:02:20.704Z,11.67
2018-10-01T10:04:51.713Z,12.08
2018-10-01T10:07:22.253Z,11.96
2018-10-01T10:09:52.998Z,12.13
2018-10-01T10:12:24.106Z,12.48
2018-10-01T10:14:54.495Z,12.74
2018-10-01T10:17:24.783Z,12.55
2018-10-01T10:19:54.679Z,12.40
2018-10-01T10:22:26.081Z,12.51
2018-10-01T10:24:56.632Z,12.35
2018-10-01T10:27:26.578Z,12.30
2018-10-01T10:29:56.425Z,12.53
2018-10-01T10:32:27.173Z,12.21
2018-10-01T10:34:58.089Z,12.29
2018-10-01T10:37:28.612Z,12.10
2018-10-01T10:39:59.114Z,12.10
2018-10-01T10:42:29.999Z,11.81
2018-10-01T10:45:06.702Z,11.70
2018-10-01T10:47:37.326Z,11.68
2018-10-01T10:50:09.012Z,11.72
2018-10-01T10:52:38.942Z,11.35
2018-10-01T10:55:09.340Z,11.56
2018-10-01T10:57:39.876Z,11.46
2018-10-01T11:00:10.740Z,11.37
2018-10-01T11:02:41.280Z,11.68
2018-10-01T11:05:11.629Z,11.84
2018-10-01T11:07:42.044Z,11.66
2018-10-01T11:10:12.421Z,11.82
2018-10-01T11:12:42.434Z,11.81
2018-10-01T11:15:13.330Z,11.65
2018-10-01T11:17:43.881Z,11.59
2018-10-01T11:20:14.715Z,11.63
2018-10-01T11:22:45.146Z,11.50
2018-10-01T11:25:16.247Z,11.81
2018-10-01T11:27:46.495Z,11.96
2018-10-01T11:30:17.347Z,12.03
2018-10-01T11:32:47.718Z,11.84
2018-10-01T11:35:18.327Z,11.81
2018-10-01T11:37:48.646Z,11.76
2018-10-01T11:40:18.684Z,11.89
2018-10-01T11:42:48.882Z,11.95
2018-10-01T11:45:18.088Z,11.89
2018-10-01T11:47:46.775Z,11.77
2018-10-01T11:50:15.637Z,11.69
2018-10-01T11:52:44.743Z,12.14
2018-10-01T11:55:13.577Z,12.28
2018-10-01T11:57:42.572Z,11.95
2018-10-01T12:00:11.712Z,12.59
2018-10-01T12:02:40.612Z,11.90
2018-10-01T12:05:09.408Z,12.29
2018-10-01T12:07:38.254Z,12.28
2018-10-01T12:10:07.231Z,11.96
2018-10-01T12:12:36.080Z,11.54
2018-10-01T12:15:05.017Z,11.26
2018-10-01T12:17:33.944Z,11.23
2018-10-01T12:20:02.824Z,11.34
2018-10-01T12:22:31.692Z,10.96
2018-10-01T12:25:00.457Z,10.74
2018-10-01T12:27:29.681Z,10.75
2018-10-01T12:29:58.432Z,10.92
2018-10-01T12:32:27.265Z,10.92
2018-10-01T12:34:56.253Z,11.03
2018-10-01T12:37:25.276Z,10.93
2018-10-01T12:39:54.123Z,10.98
2018-10-01T12:42:23.033Z,11.05
2018-10-01T12:44:51.845Z,10.92
2018-10-01T12:47:20.789Z,10.92
2018-10-01T12:49:49.591Z,10.67
2018-10-01T12:52:18.387Z,9.80
2018-10-01T12:54:47.238Z,9.83
2018-10-01T12:57:16.111Z,9.86
2018-10-01T12:59:44.987Z,9.96
2018-10-01T13:02:13.809Z,9.87
2018-10-01T13:04:42.945Z,9.78
2018-10-01T13:07:11.712Z,9.89
2018-10-01T13:09:40.570Z,10.09
2018-10-01T13:12:09.432Z,10.08
2018-10-01T13:14:38.408Z,10.32
2018-10-01T13:17:07.304Z,10.43
2018-10-01T13:19:36.147Z,10.48
2018-10-01T13:22:05.028Z,10.50
2018-10-01T13:24:34.060Z,10.72
2018-10-01T13:27:02.808Z,10.86
2018-10-01T13:29:31.659Z,11.00
2018-10-01T13:32:01.178Z,10.89
2018-10-01T13:34:29.889Z,11.03
2018-10-01T13:36:58.753Z,11.05
2018-10-01T13:39:27.606Z,11.09
2018-10-01T13:41:56.452Z,10.70
2018-10-01T13:44:25.369Z,10.67
2018-10-01T13:46:54.218Z,10.87
2018-10-01T13:49:23.118Z,11.16
2018-10-01T13:51:52.216Z,11.43
2018-10-01T13:54:21.156Z,11.53
2018-10-01T13:56:50.316Z,10.90
2018-10-01T13:59:19.120Z,11.00
2018-10-01T14:01:48.104Z,10.98
2018-10-01T14:04:17.135Z,10.72
2018-10-01T14:06:45.990Z,10.45
2018-10-01T14:09:14.823Z,10.06
2018-10-01T14:11:43.960Z,10.06
2018-10-01T14:14:12.811Z,10.17
2018-10-01T14:16:41.664Z,10.12
2018-10-01T14:19:10.479Z,10.13
2018-10-01T14:21:39.624Z,10.02
2018-10-01T14:24:08.517Z,10.31
2018-10-01T14:26:37.458Z,10.29
2018-10-01T14:29:06.327Z,10.21
2018-10-01T14:31:35.180Z,10.36
2018-10-01T14:34:04.009Z,10.46
2018-10-01T14:36:33.186Z,10.58
2018-10-01T14:39:02.072Z,10.66
2018-10-01T14:41:30.899Z,10.92
2018-10-01T14:43:59.821Z,10.90
2018-10-01T14:46:28.756Z,11.05
2018-10-01T14:48:57.587Z,11.12
2018-10-01T14:51:26.710Z,10.99
2018-10-01T14:53:55.583Z,11.10
2018-10-01T14:56:24.430Z,11.12
2018-10-01T14:58:53.288Z,11.00
2018-10-01T15:01:22.172Z,10.77
2018-10-01T15:03:51.359Z,10.57
2018-10-01T15:06:20.179Z,10.37
2018-10-01T15:08:49.057Z,10.31
2018-10-01T15:11:17.898Z,10.21
2018-10-01T15:13:46.739Z,10.24
2018-10-01T15:16:15.656Z,10.10
2018-10-01T15:18:44.483Z,10.17
2018-10-01T15:21:14.081Z,10.42
2018-10-01T15:23:42.906Z,10.51
2018-10-01T15:26:11.715Z,10.48
2018-10-01T15:28:40.597Z,10.54
2018-10-01T15:31:09.429Z,10.18
2018-10-01T15:33:38.280Z,10.32
2018-10-01T15:36:07.216Z,10.44
2018-10-01T15:38:36.022Z,10.38
2018-10-01T15:45:29.936Z,10.20
2018-10-01T15:47:58.719Z,10.18
2018-10-01T15:50:27.589Z,10.18
2018-10-01T15:52:56.578Z,10.11
2018-10-01T15:55:25.440Z,10.05
2018-10-01T15:57:54.260Z,10.09
2018-10-01T16:00:23.163Z,10.07
2018-10-01T16:02:52.025Z,9.84
2018-10-01T16:05:20.942Z,9.74
2018-10-01T16:07:49.755Z,9.82
2018-10-01T16:10:18.887Z,9.75
2018-10-01T16:12:47.678Z,9.66
2018-10-01T16:15:16.542Z,9.64
2018-10-01T16:17:45.446Z,9.52
2018-10-01T16:20:14.302Z,9.46
2018-10-01T16:22:43.104Z,9.28
2018-10-01T16:25:11.933Z,9.35
2018-10-01T16:27:40.716Z,9.25
2018-10-01T16:30:10.205Z,9.14
2018-10-01T16:32:39.495Z,9.06
2018-10-01T16:35:08.296Z,9.10
2018-10-01T16:37:37.152Z,9.04
2018-10-01T16:40:06.104Z,9.04
2018-10-01T16:42:35.033Z,8.97
2018-10-01T16:45:09.832Z,8.96
2018-10-01T16:47:38.687Z,8.87
2018-10-01T16:50:07.589Z,8.88
2018-10-01T16:52:36.465Z,8.93
2018-10-01T16:55:05.896Z,8.83
2018-10-01T16:57:34.744Z,8.88
2018-10-01T17:00:03.676Z,8.66
2018-10-01T17:02:32.500Z,8.80
2018-10-01T17:05:01.361Z,8.82
2018-10-01T17:07:30.175Z,8.81
2018-10-01T17:09:58.986Z,8.82
2018-10-01T17:12:27.890Z,8.68
2018-10-01T17:14:56.656Z,8.65
2018-10-01T17:17:25.692Z,8.69
2018-10-01T17:19:54.484Z,8.47
2018-10-01T17:22:23.352Z,8.61
2018-10-01T17:24:52.159Z,8.45
2018-10-01T17:27:21.075Z,8.44
2018-10-01T17:29:50.303Z,8.48
2018-10-01T17:32:19.163Z,8.35
2018-10-01T17:34:48.299Z,8.37
2018-10-01T17:37:17.125Z,8.58
2018-10-01T17:39:45.972Z,8.60
2018-10-01T17:42:14.945Z,8.61
2018-10-01T17:44:43.783Z,8.57
2018-10-01T17:47:12.568Z,8.68
2018-10-01T17:49:41.387Z,8.68
2018-10-01T17:52:10.490Z,8.69
2018-10-01T17:54:39.374Z,8.69
2018-10-01T17:57:08.156Z,8.71
2018-10-01T17:59:37.003Z,8.58
2018-10-01T18:02:05.990Z,8.75
2018-10-01T18:04:34.816Z,8.50
2018-10-01T18:07:03.672Z,8.60
2018-10-01T18:09:32.744Z,8.60
2018-10-01T18:12:01.594Z,8.55
2018-10-01T18:14:30.490Z,8.60
2018-10-01T18:16:59.416Z,8.39
2018-10-01T18:19:28.331Z,8.63
2018-10-01T18:21:58.418Z,8.58
2018-10-01T18:24:27.178Z,8.50
2018-10-01T18:26:56.018Z,8.52
2018-10-01T18:29:24.813Z,8.52
2018-10-01T18:31:53.804Z,8.53
2018-10-01T18:34:22.596Z,8.52
2018-10-01T18:36:51.425Z,8.48
2018-10-01T18:39:23.796Z,8.33
2018-10-01T18:41:52.736Z,8.50
2018-10-01T18:44:21.564Z,8.46
2018-10-01T18:46:50.434Z,8.49
2018-10-01T18:49:19.490Z,8.40
2018-10-01T18:51:48.391Z,8.47
2018-10-01T18:54:17.305Z,8.41
2018-10-01T18:56:46.111Z,8.54
2018-10-01T18:59:14.997Z,8.54
2018-10-01T19:01:43.842Z,8.61
2018-10-01T19:04:12.688Z,8.57
2018-10-01T19:06:41.937Z,8.50
2018-10-01T19:09:11.889Z,8.56
2018-10-01T19:11:41.378Z,8.53
2018-10-01T19:14:10.607Z,8.46
2018-10-01T19:16:39.443Z,8.58
2018-10-01T19:19:08.316Z,8.52
2018-10-01T19:21:37.210Z,8.53
2018-10-01T19:24:06.379Z,8.53
2018-10-01T19:26:36.170Z,8.51
2018-10-01T19:29:05.236Z,8.40
2018-10-01T19:31:35.005Z,8.49
2018-10-01T19:34:04.308Z,8.46
2018-10-01T19:36:33.347Z,8.32
2018-10-01T19:39:02.448Z,8.22
2018-10-01T19:41:31.714Z,8.28
2018-10-01T19:44:00.745Z,7.97
2018-10-01T19:46:29.847Z,8.01
2018-10-01T19:48:58.927Z,7.94
2018-10-01T19:51:27.807Z,8.13
2018-10-01T19:53:56.613Z,8.00
2018-10-01T19:56:25.919Z,7.80
2018-10-01T19:58:54.919Z,7.86
2018-10-01T20:01:23.831Z,7.80
2018-10-01T20:03:52.624Z,7.93
2018-10-01T20:06:21.533Z,7.91
2018-10-01T20:08:50.436Z,7.96
2018-10-01T20:11:19.794Z,7.97
2018-10-01T20:13:48.543Z,7.97
2018-10-01T20:16:17.363Z,8.02
2018-10-01T20:18:46.206Z,8.03
2018-10-01T20:21:15.117Z,8.07
2018-10-01T20:23:43.987Z,8.06
2018-10-01T20:26:12.959Z,8.05
2018-10-01T20:28:41.897Z,8.01
2018-10-01T20:31:10.963Z,8.04
2018-10-01T20:33:39.818Z,8.12
2018-10-01T20:36:08.836Z,8.12
2018-10-01T20:38:37.786Z,8.08
2018-10-01T20:41:06.714Z,7.95
2018-10-01T20:43:35.636Z,7.92
2018-10-01T20:46:04.515Z,7.91
2018-10-01T20:48:33.436Z,7.72
2018-10-01T20:51:02.263Z,7.69
2018-10-01T20:53:31.232Z,7.49
2018-10-01T20:56:00.198Z,7.58
2018-10-01T20:58:28.935Z,7.66
2018-10-01T21:00:57.913Z,7.73
2018-10-01T21:03:26.776Z,7.85
2018-10-01T21:05:55.595Z,7.91
2018-10-01T21:08:24.521Z,7.97
2018-10-01T21:10:53.658Z,8.03
2018-10-01T21:13:22.632Z,8.00
2018-10-01T21:15:51.464Z,8.04
2018-10-01T21:18:20.335Z,7.86
2018-10-01T21:20:49.192Z,7.93
2018-10-01T21:23:18.086Z,7.98
2018-10-01T21:25:47.003Z,7.96
2018-10-01T21:28:15.793Z,7.94
2018-10-01T21:30:44.607Z,7.85
2018-10-01T21:33:13.414Z,7.62
2018-10-01T21:35:42.282Z,7.60
2018-10-01T21:38:11.582Z,7.49
2018-10-01T21:40:40.408Z,7.55
2018-10-01T21:43:09.215Z,7.49
2018-10-01T21:45:38.105Z,7.54
2018-10-01T21:48:06.948Z,7.52
2018-10-01T21:50:35.902Z,7.49
2018-10-01T21:53:04.755Z,7.40
2018-10-01T21:55:33.658Z,7.37
2018-10-01T21:58:02.519Z,7.50
2018-10-01T22:00:38.248Z,7.49
2018-10-01T22:03:07.245Z,7.40
2018-10-01T22:05:36.148Z,7.34
2018-10-01T22:08:05.033Z,7.30
2018-10-01T22:10:33.917Z,7.36
2018-10-01T22:13:02.736Z,7.22
2018-10-01T22:15:37.911Z,7.26
2018-10-01T22:18:06.778Z,7.15
2018-10-01T22:20:35.626Z,7.25
2018-10-01T22:23:04.574Z,7.15
2018-10-01T22:25:33.556Z,6.96
2018-10-01T22:28:02.463Z,7.12
2018-10-01T22:30:31.615Z,7.11
2018-10-01T22:33:00.499Z,7.14
2018-10-01T22:35:29.337Z,7.16
2018-10-01T22:37:58.284Z,7.20
2018-10-01T22:40:27.085Z,7.19
2018-10-01T22:42:55.975Z,7.16
2018-10-01T22:45:24.772Z,7.28
2018-10-01T22:47:53.653Z,7.36
2018-10-01T22:50:22.545Z,7.39
2018-10-01T22:52:51.498Z,7.40
2018-10-01T22:55:20.278Z,7.44
2018-10-01T22:57:49.200Z,7.25
2018-10-01T23:00:17.999Z,7.17
2018-10-01T23:02:47.056Z,7.22
2018-10-01T23:05:16.208Z,7.26
2018-10-01T23:07:45.092Z,7.34
2018-10-01T23:10:13.929Z,7.42
2018-10-01T23:12:43.157Z,7.16
2018-10-01T23:15:12.085Z,7.21
2018-10-01T23:17:40.906Z,7.31
2018-10-01T23:20:09.796Z,7.36
2018-10-01T23:22:38.588Z,7.21
2018-10-01T23:25:07.504Z,7.13
2018-10-01T23:27:36.388Z,7.18
2018-10-01T23:30:05.724Z,7.16
2018-10-01T23:32:34.544Z,7.06
2018-10-01T23:35:03.484Z,7.17
2018-10-01T23:37:32.365Z,7.08
2018-10-01T23:40:01.323Z,6.94
2018-10-01T23:42:30.408Z,6.99
2018-10-01T23:44:59.260Z,7.02
2018-10-01T23:47:28.477Z,6.97
2018-10-01T23:49:57.355Z,7.04
2018-10-01T23:52:26.232Z,7.02
2018-10-01T23:54:55.089Z,6.85
2018-10-01T23:57:24.152Z,6.94
2018-10-01T23:59:53.032Z,6.99
